sensor_id;sensor_type;location;lat;lon;timestamp;P1;durP1;ratioP1;P2;durP2;ratioP2
37341;SDS011;58643;49.052;8.518;2023-08-17T10:46:35;7.05;;;5.70;;
37341;SDS011;58643;49.052;8.518;2023-08-17T10:49:05;8.13;;;5.50;;
37341;SDS011;58643;49.052;8.518;2023-08-17T10:51:32;9.85;;;5.03;;
37341;SDS011;58643;49.052;8.518;2023-08-17T10:53:59;7.47;;;4.97;;
37341;SDS011;58643;49.052;8.518;2023-08-17T10:56:28;8.15;;;4.63;;
37341;SDS011;58643;49.052;8.518;2023-08-17T10:58:54;8.57;;;5.63;;
37341;SDS011;58643;49.052;8.518;2023-08-17T11:01:36;7.13;;;5.13;;
37341;SDS011;58643;49.052;8.518;2023-08-17T11:04:08;7.38;;;5.10;;
37341;SDS011;58643;49.052;8.518;2023-08-17T11:06:36;6.80;;;4.53;;
37341;SDS011;58643;49.052;8.518;2023-08-17T11:09:05;7.15;;;4.35;;
37341;SDS011;58643;49.052;8.518;2023-08-17T11:11:32;6.70;;;5.60;;
37341;SDS011;58643;49.052;8.518;2023-08-17T11:13:58;6.65;;;4.82;;
37341;SDS011;58643;49.052;8.518;2023-08-17T11:16:24;5.93;;;4.38;;
37341;SDS011;58643;49.052;8.518;2023-08-17T11:18:50;7.72;;;4.82;;
37341;SDS011;58643;49.052;8.518;2023-08-17T11:21:16;6.05;;;4.35;;
37341;SDS011;58643;49.052;8.518;2023-08-17T11:23:42;5.65;;;4.38;;
37341;SDS011;58643;49.052;8.518;2023-08-17T11:26:08;6.03;;;4.35;;
37341;SDS011;58643;49.052;8.518;2023-08-17T11:28:35;8.10;;;4.43;;
37341;SDS011;58643;49.052;8.518;2023-08-17T11:31:07;11.07;;;6.07;;
37341;SDS011;58643;49.052;8.518;2023-08-17T11:33:34;12.30;;;5.95;;
37341;SDS011;58643;49.052;8.518;2023-08-17T11:36:02;9.98;;;5.97;;
37341;SDS011;58643;49.052;8.518;2023-08-17T11:38:37;16.23;;;5.63;;
37341;SDS011;58643;49.052;8.518;2023-08-17T11:41:05;6.85;;;5.60;;
37341;SDS011;58643;49.052;8.518;2023-08-17T11:43:33;9.20;;;5.63;;
37341;SDS011;58643;49.052;8.518;2023-08-17T11:45:59;11.38;;;6.50;;
37341;SDS011;58643;49.052;8.518;2023-08-17T11:48:26;8.48;;;6.28;;
37341;SDS011;58643;49.052;8.518;2023-08-17T11:50:52;8.20;;;5.78;;
37341;SDS011;58643;49.052;8.518;2023-08-17T11:53:19;8.35;;;6.35;;
37341;SDS011;58643;49.052;8.518;2023-08-17T11:55:44;8.85;;;6.00;;
37341;SDS011;58643;49.052;8.518;2023-08-17T11:58:10;7.78;;;5.85;;
37341;SDS011;58643;49.052;8.518;2023-08-17T12:00:36;9.70;;;5.57;;
37341;SDS011;58643;49.052;8.518;2023-08-17T12:03:06;11.10;;;7.18;;
37341;SDS011;58643;49.052;8.518;2023-08-17T12:05:31;10.13;;;8.38;;
37341;SDS011;58643;49.052;8.518;2023-08-17T12:08:00;11.00;;;8.82;;
37341;SDS011;58643;49.052;8.518;2023-08-17T12:10:27;15.93;;;9.43;;
37341;SDS011;58643;49.052;8.518;2023-08-17T12:12:56;13.23;;;9.32;;
37341;SDS011;58643;49.052;8.518;2023-08-17T12:15:23;15.82;;;9.73;;
37341;SDS011;58643;49.052;8.518;2023-08-17T12:17:49;15.70;;;10.35;;
37341;SDS011;58643;49.052;8.518;2023-08-17T12:20:20;12.07;;;10.18;;
37341;SDS011;58643;49.052;8.518;2023-08-17T12:22:47;17.65;;;10.23;;
37341;SDS011;58643;49.052;8.518;2023-08-17T12:25:13;12.80;;;10.18;;
37341;SDS011;58643;49.052;8.518;2023-08-17T12:27:39;13.40;;;10.30;;
37341;SDS011;58643;49.052;8.518;2023-08-17T12:30:28;13.85;;;9.75;;
37341;SDS011;58643;49.052;8.518;2023-08-17T12:32:53;16.05;;;9.63;;
37341;SDS011;58643;49.052;8.518;2023-08-17T12:35:19;12.02;;;8.50;;
37341;SDS011;58643;49.052;8.518;2023-08-17T12:37:46;12.90;;;9.00;;
37341;SDS011;58643;49.052;8.518;2023-08-17T12:40:12;9.52;;;7.85;;
37341;SDS011;58643;49.052;8.518;2023-08-17T12:42:38;11.02;;;7.78;;
37341;SDS011;58643;49.052;8.518;2023-08-17T12:45:04;11.68;;;7.90;;
37341;SDS011;58643;49.052;8.518;2023-08-17T12:47:30;11.25;;;7.90;;
37341;SDS011;58643;49.052;8.518;2023-08-17T12:49:55;11.05;;;7.63;;
37341;SDS011;58643;49.052;8.518;2023-08-17T12:52:21;10.25;;;6.80;;
37341;SDS011;58643;49.052;8.518;2023-08-17T12:54:46;9.32;;;6.70;;
37341;SDS011;58643;49.052;8.518;2023-08-17T12:57:12;9.60;;;7.15;;
37341;SDS011;58643;49.052;8.518;2023-08-17T12:59:37;11.95;;;7.25;;
37341;SDS011;58643;49.052;8.518;2023-08-17T13:02:03;8.48;;;6.78;;
37341;SDS011;58643;49.052;8.518;2023-08-17T13:04:29;7.85;;;6.32;;
37341;SDS011;58643;49.052;8.518;2023-08-17T13:06:54;7.82;;;6.32;;
37341;SDS011;58643;49.052;8.518;2023-08-17T13:09:20;8.98;;;6.40;;
37341;SDS011;58643;49.052;8.518;2023-08-17T13:11:46;9.43;;;6.43;;
37341;SDS011;58643;49.052;8.518;2023-08-17T13:14:12;7.38;;;5.95;;
37341;SDS011;58643;49.052;8.518;2023-08-17T13:16:39;7.03;;;5.97;;
37341;SDS011;58643;49.052;8.518;2023-08-17T13:19:04;7.53;;;5.25;;
37341;SDS011;58643;49.052;8.518;2023-08-17T13:21:30;9.30;;;6.10;;
37341;SDS011;58643;49.052;8.518;2023-08-17T13:23:55;8.82;;;6.10;;
37341;SDS011;58643;49.052;8.518;2023-08-17T13:26:24;7.75;;;5.90;;
37341;SDS011;58643;49.052;8.518;2023-08-17T13:28:50;8.25;;;5.50;;
37341;SDS011;58643;49.052;8.518;2023-08-17T13:31:15;6.00;;;5.20;;
37341;SDS011;58643;49.052;8.518;2023-08-17T13:33:41;9.88;;;5.72;;
37341;SDS011;58643;49.052;8.518;2023-08-17T13:36:07;8.77;;;5.47;;
37341;SDS011;58643;49.052;8.518;2023-08-17T13:38:32;7.25;;;4.85;;
37341;SDS011;58643;49.052;8.518;2023-08-17T13:40:58;7.70;;;5.63;;
37341;SDS011;58643;49.052;8.518;2023-08-17T13:43:23;5.97;;;5.28;;
37341;SDS011;58643;49.052;8.518;2023-08-17T13:45:49;8.23;;;5.50;;
37341;SDS011;58643;49.052;8.518;2023-08-17T13:48:15;7.85;;;5.53;;
37341;SDS011;58643;49.052;8.518;2023-08-17T13:50:40;7.45;;;5.30;;
37341;SDS011;58643;49.052;8.518;2023-08-17T13:53:06;6.80;;;5.13;;
37341;SDS011;58643;49.052;8.518;2023-08-17T13:55:31;8.18;;;5.50;;
37341;SDS011;58643;49.052;8.518;2023-08-17T13:57:57;7.45;;;5.50;;
37341;SDS011;58643;49.052;8.518;2023-08-17T14:00:23;7.35;;;5.28;;
37341;SDS011;58643;49.052;8.518;2023-08-17T14:02:49;7.65;;;4.95;;
37341;SDS011;58643;49.052;8.518;2023-08-17T14:05:15;9.48;;;5.40;;
37341;SDS011;58643;49.052;8.518;2023-08-17T14:07:41;7.50;;;5.22;;
37341;SDS011;58643;49.052;8.518;2023-08-17T14:10:07;6.18;;;5.13;;
37341;SDS011;58643;49.052;8.518;2023-08-17T14:12:32;6.43;;;5.43;;
37341;SDS011;58643;49.052;8.518;2023-08-17T14:14:58;4.97;;;4.32;;
37341;SDS011;58643;49.052;8.518;2023-08-17T14:17:24;7.88;;;5.15;;
37341;SDS011;58643;49.052;8.518;2023-08-17T14:19:50;6.00;;;5.40;;
37341;SDS011;58643;49.052;8.518;2023-08-17T14:22:15;7.95;;;5.35;;
37341;SDS011;58643;49.052;8.518;2023-08-17T14:24:41;11.05;;;5.30;;
37341;SDS011;58643;49.052;8.518;2023-08-17T14:27:07;6.53;;;4.70;;
37341;SDS011;58643;49.052;8.518;2023-08-17T14:29:32;5.80;;;5.07;;
37341;SDS011;58643;49.052;8.518;2023-08-17T14:31:58;8.65;;;5.18;;
37341;SDS011;58643;49.052;8.518;2023-08-17T14:34:23;5.32;;;4.65;;
37341;SDS011;58643;49.052;8.518;2023-08-17T14:36:49;7.60;;;5.85;;
37341;SDS011;58643;49.052;8.518;2023-08-17T14:39:14;6.93;;;4.60;;
37341;SDS011;58643;49.052;8.518;2023-08-17T14:41:40;6.55;;;4.85;;
37341;SDS011;58643;49.052;8.518;2023-08-17T14:44:06;7.60;;;4.88;;
37341;SDS011;58643;49.052;8.518;2023-08-17T14:46:31;6.05;;;4.70;;
37341;SDS011;58643;49.052;8.518;2023-08-17T14:48:57;9.65;;;4.97;;
37341;SDS011;58643;49.052;8.518;2023-08-17T14:51:23;8.23;;;4.70;;
37341;SDS011;58643;49.052;8.518;2023-08-17T14:53:49;6.18;;;4.82;;
37341;SDS011;58643;49.052;8.518;2023-08-17T14:56:15;5.03;;;4.43;;
37341;SDS011;58643;49.052;8.518;2023-08-17T14:58:40;8.07;;;5.63;;
37341;SDS011;58643;49.052;8.518;2023-08-17T15:01:06;6.82;;;4.68;;
37341;SDS011;58643;49.052;8.518;2023-08-17T15:03:32;8.38;;;4.60;;
37341;SDS011;58643;49.052;8.518;2023-08-17T15:05:57;5.60;;;4.80;;
37341;SDS011;58643;49.052;8.518;2023-08-17T15:08:23;7.80;;;4.88;;
37341;SDS011;58643;49.052;8.518;2023-08-17T15:10:49;7.28;;;4.95;;
37341;SDS011;58643;49.052;8.518;2023-08-17T15:13:15;7.07;;;4.70;;
37341;SDS011;58643;49.052;8.518;2023-08-17T15:15:42;6.10;;;4.35;;
37341;SDS011;58643;49.052;8.518;2023-08-17T15:18:08;8.63;;;5.22;;
37341;SDS011;58643;49.052;8.518;2023-08-17T15:20:34;6.93;;;4.50;;
37341;SDS011;58643;49.052;8.518;2023-08-17T15:22:59;11.13;;;4.82;;
37341;SDS011;58643;49.052;8.518;2023-08-17T15:25:25;8.13;;;4.60;;
37341;SDS011;58643;49.052;8.518;2023-08-17T15:27:50;6.38;;;4.68;;
37341;SDS011;58643;49.052;8.518;2023-08-17T15:30:16;5.82;;;4.57;;
37341;SDS011;58643;49.052;8.518;2023-08-17T15:32:42;7.15;;;4.65;;
37341;SDS011;58643;49.052;8.518;2023-08-17T15:35:09;8.18;;;5.07;;
37341;SDS011;58643;49.052;8.518;2023-08-17T15:37:38;10.07;;;5.18;;
37341;SDS011;58643;49.052;8.518;2023-08-17T15:40:05;5.32;;;4.80;;
37341;SDS011;58643;49.052;8.518;2023-08-17T15:42:31;6.45;;;4.85;;
37341;SDS011;58643;49.052;8.518;2023-08-17T15:44:56;7.70;;;5.22;;
37341;SDS011;58643;49.052;8.518;2023-08-17T15:47:22;6.18;;;5.40;;
37341;SDS011;58643;49.052;8.518;2023-08-17T15:49:48;6.68;;;4.95;;
37341;SDS011;58643;49.052;8.518;2023-08-17T15:52:14;7.15;;;5.90;;
37341;SDS011;58643;49.052;8.518;2023-08-17T15:54:40;9.10;;;5.55;;
37341;SDS011;58643;49.052;8.518;2023-08-17T15:57:06;7.05;;;5.13;;
37341;SDS011;58643;49.052;8.518;2023-08-17T15:59:31;10.20;;;5.65;;
37341;SDS011;58643;49.052;8.518;2023-08-17T16:01:57;7.82;;;5.82;;
37341;SDS011;58643;49.052;8.518;2023-08-17T16:04:23;7.20;;;5.78;;
37341;SDS011;58643;49.052;8.518;2023-08-17T16:06:48;7.78;;;6.00;;
37341;SDS011;58643;49.052;8.518;2023-08-17T16:09:14;7.07;;;4.90;;
37341;SDS011;58643;49.052;8.518;2023-08-17T16:11:39;10.68;;;5.78;;
37341;SDS011;58643;49.052;8.518;2023-08-17T16:14:05;7.53;;;5.25;;
37341;SDS011;58643;49.052;8.518;2023-08-17T16:16:31;7.57;;;5.53;;
37341;SDS011;58643;49.052;8.518;2023-08-17T16:18:56;8.68;;;5.88;;
37341;SDS011;58643;49.052;8.518;2023-08-17T16:21:22;9.80;;;5.65;;
37341;SDS011;58643;49.052;8.518;2023-08-17T16:23:47;11.10;;;5.85;;
37341;SDS011;58643;49.052;8.518;2023-08-17T16:26:13;8.50;;;5.20;;
37341;SDS011;58643;49.052;8.518;2023-08-17T16:28:38;9.10;;;5.10;;
37341;SDS011;58643;49.052;8.518;2023-08-17T16:31:04;9.73;;;6.00;;
37341;SDS011;58643;49.052;8.518;2023-08-17T16:33:30;9.20;;;5.80;;
37341;SDS011;58643;49.052;8.518;2023-08-17T16:35:55;7.57;;;5.28;;
37341;SDS011;58643;49.052;8.518;2023-08-17T16:38:21;8.23;;;5.72;;
37341;SDS011;58643;49.052;8.518;2023-08-17T16:40:46;7.10;;;5.72;;
37341;SDS011;58643;49.052;8.518;2023-08-17T16:43:12;8.00;;;5.70;;
